Andersonburg, Pennsylvania
Current Conditions -  °F | °C
As of 11:56 AM on Sunday 21 Dec 2014 (Local Time) from KCXY Reporting Station
Overcast Overcast  
Wind Chill: 27°   Ceiling: 2800
Heat Index: 34°   Visibility: 10mi
Dew Point: 21°   Wind: 8mph
Humidity: 59%   Direction: 340°NNW
Pressure: 30.34"   Gusts: NA
Location:  40.3674°N, 77.4381°W
Report Text: KCXY 211656Z 34007KT 10SM OVC028 01/M06 A3034 RMK AO2 SLP278 T00111061
Loading
Personal Weather Stations






























Interactive Weather Map New forecast layout! Learn more

10-Day Weather Forecast

Advertisements
Track Severe Weather on mobile